createdAt,value
2017-06-19T00:00:07.255Z,5.00
2017-06-19T00:01:03.506Z,5.50
2017-06-19T00:01:59.782Z,6.20
2017-06-19T00:02:56.035Z,6.20
2017-06-19T00:03:52.294Z,4.90
2017-06-19T00:04:48.551Z,6.00
2017-06-19T00:05:44.794Z,6.00
2017-06-19T00:06:41.051Z,5.00
2017-06-19T00:07:37.327Z,5.70
2017-06-19T00:08:33.594Z,5.70
2017-06-19T00:09:29.846Z,5.60
2017-06-19T00:10:26.088Z,5.40
2017-06-19T00:11:22.347Z,5.70
2017-06-19T00:12:18.622Z,5.90
2017-06-19T00:13:14.891Z,5.80
2017-06-19T00:14:11.134Z,5.30
2017-06-19T00:15:07.379Z,5.20
2017-06-19T00:16:03.636Z,5.20
2017-06-19T00:16:59.902Z,5.00
2017-06-19T00:17:56.162Z,5.30
2017-06-19T00:18:52.423Z,5.50
2017-06-19T00:19:48.675Z,5.90
2017-06-19T00:20:44.935Z,5.70
2017-06-19T00:21:45.870Z,5.60
2017-06-19T00:22:42.180Z,6.60
2017-06-19T00:23:43.138Z,5.50
2017-06-19T00:24:44.094Z,5.40
2017-06-19T00:25:40.344Z,5.20
2017-06-19T00:26:36.598Z,5.40
2017-06-19T00:27:32.842Z,5.50
2017-06-19T00:28:29.091Z,5.60
2017-06-19T00:29:25.363Z,5.30
2017-06-19T00:30:21.615Z,5.20
2017-06-19T00:31:17.867Z,4.70
2017-06-19T00:32:14.118Z,5.00
2017-06-19T00:33:10.374Z,5.20
2017-06-19T00:34:06.643Z,7.00
2017-06-19T00:35:02.898Z,4.90
2017-06-19T00:35:59.143Z,6.00
2017-06-19T00:36:55.400Z,5.50
2017-06-19T00:37:51.659Z,5.40
2017-06-19T00:38:47.922Z,5.40
2017-06-19T00:39:44.190Z,5.00
2017-06-19T00:40:40.471Z,5.30
2017-06-19T00:41:36.731Z,5.10
2017-06-19T00:42:32.978Z,5.00
2017-06-19T00:43:29.219Z,5.40
2017-06-19T00:44:25.506Z,5.60
2017-06-19T00:45:21.755Z,6.30
2017-06-19T00:46:18.003Z,4.50
2017-06-19T00:47:14.242Z,4.90
2017-06-19T00:48:10.486Z,5.50
2017-06-19T00:49:06.723Z,5.30
2017-06-19T00:50:02.991Z,5.30
2017-06-19T00:50:59.238Z,5.30
2017-06-19T00:51:55.487Z,6.40
2017-06-19T00:52:51.767Z,5.50
2017-06-19T00:53:48.015Z,6.00
2017-06-19T00:54:44.266Z,5.60
2017-06-19T00:55:40.549Z,5.30
2017-06-19T00:56:36.799Z,5.00
2017-06-19T00:57:33.054Z,5.30
2017-06-19T00:58:29.312Z,5.10
2017-06-19T00:59:25.566Z,4.80
2017-06-19T01:00:21.826Z,5.60
2017-06-19T01:01:18.090Z,5.20
2017-06-19T01:02:14.359Z,5.10
2017-06-19T01:03:10.622Z,4.90
2017-06-19T01:04:06.874Z,5.00
2017-06-19T01:05:03.135Z,5.10
2017-06-19T01:05:59.411Z,5.40
2017-06-19T01:06:55.662Z,4.80
2017-06-19T01:07:51.907Z,4.70
2017-06-19T01:08:48.146Z,5.40
2017-06-19T01:09:44.386Z,4.70
2017-06-19T01:10:40.651Z,5.10
2017-06-19T01:11:36.931Z,5.40
2017-06-19T01:12:33.191Z,4.90
2017-06-19T01:13:29.443Z,4.90
2017-06-19T01:14:25.703Z,5.30
2017-06-19T01:15:21.946Z,5.50
2017-06-19T01:16:18.221Z,5.60
2017-06-19T01:17:14.462Z,5.10
2017-06-19T01:18:10.707Z,5.10
2017-06-19T01:19:06.948Z,5.20
2017-06-19T01:20:03.190Z,4.30
2017-06-19T01:20:59.451Z,5.20
2017-06-19T01:21:55.730Z,4.80
2017-06-19T01:22:51.974Z,5.70
2017-06-19T01:23:48.226Z,4.90
2017-06-19T01:24:44.462Z,4.60
2017-06-19T01:25:40.703Z,5.40
2017-06-19T01:26:36.980Z,5.40
2017-06-19T01:27:33.247Z,5.10
2017-06-19T01:28:29.507Z,5.10
2017-06-19T01:29:25.763Z,5.50
2017-06-19T01:30:22.014Z,5.10
2017-06-19T01:31:18.271Z,5.40
2017-06-19T01:32:14.506Z,4.90
2017-06-19T01:33:10.774Z,4.70
2017-06-19T01:34:07.034Z,5.10
2017-06-19T01:35:03.290Z,5.30
2017-06-19T01:35:59.554Z,5.40
2017-06-19T01:36:55.802Z,5.60
2017-06-19T01:37:52.090Z,5.20
2017-06-19T01:38:48.360Z,5.30
2017-06-19T01:39:44.613Z,5.00
2017-06-19T01:40:40.858Z,5.00
2017-06-19T01:41:37.099Z,5.80
2017-06-19T01:42:33.350Z,4.90
2017-06-19T01:43:29.614Z,5.10
2017-06-19T01:44:25.854Z,7.00
2017-06-19T01:45:22.115Z,4.90
2017-06-19T01:46:18.374Z,4.90
2017-06-19T01:47:14.639Z,5.90
2017-06-19T01:48:10.919Z,5.00
2017-06-19T01:49:07.171Z,4.80
2017-06-19T01:50:03.443Z,5.10
2017-06-19T01:50:59.706Z,5.10
2017-06-19T01:51:55.965Z,5.20
2017-06-19T01:52:52.223Z,5.00
2017-06-19T01:53:48.516Z,5.00
2017-06-19T01:54:44.778Z,5.10
2017-06-19T01:55:41.042Z,4.80
2017-06-19T01:56:37.298Z,5.50
2017-06-19T01:57:33.547Z,5.30
2017-06-19T01:58:29.813Z,5.00
2017-06-19T01:59:26.075Z,4.50
2017-06-19T02:00:22.333Z,5.50
2017-06-19T02:01:18.590Z,4.80
2017-06-19T02:02:14.835Z,5.30
2017-06-19T02:03:11.108Z,6.00
2017-06-19T02:04:07.391Z,4.50
2017-06-19T02:05:03.647Z,5.10
2017-06-19T02:05:59.898Z,5.20
2017-06-19T02:06:56.165Z,5.30
2017-06-19T02:07:52.426Z,5.10
2017-06-19T02:08:48.683Z,5.00
2017-06-19T02:09:44.943Z,4.80
2017-06-19T02:10:41.203Z,4.70
2017-06-19T02:11:37.474Z,4.60
2017-06-19T02:12:33.731Z,4.90
2017-06-19T02:13:29.979Z,5.10
2017-06-19T02:14:26.226Z,5.10
2017-06-19T02:15:22.506Z,4.30
2017-06-19T02:16:18.759Z,4.40
2017-06-19T02:17:15.011Z,4.70
2017-06-19T02:18:11.266Z,4.00
2017-06-19T02:19:07.533Z,5.10
2017-06-19T02:20:03.814Z,4.30
2017-06-19T02:21:00.091Z,4.90
2017-06-19T02:21:56.375Z,4.10
2017-06-19T02:22:52.644Z,4.60
2017-06-19T02:23:48.918Z,4.90
2017-06-19T02:24:45.159Z,4.30
2017-06-19T02:25:41.447Z,5.00
2017-06-19T02:26:37.702Z,4.80
2017-06-19T02:27:33.951Z,4.40
2017-06-19T02:28:30.206Z,4.70
2017-06-19T02:29:26.470Z,4.10
2017-06-19T02:30:22.731Z,5.10
2017-06-19T02:31:19.006Z,4.90
2017-06-19T02:32:15.259Z,5.00
2017-06-19T02:33:11.506Z,4.50
2017-06-19T02:34:07.764Z,5.00
2017-06-19T02:35:04.043Z,4.60
2017-06-19T02:36:00.347Z,4.70
2017-06-19T02:36:56.607Z,4.80
2017-06-19T02:37:52.866Z,5.40
2017-06-19T02:38:49.118Z,4.60
2017-06-19T02:39:45.378Z,5.20
2017-06-19T02:40:41.623Z,4.80
2017-06-19T02:41:37.887Z,4.60
2017-06-19T02:42:34.135Z,4.60
2017-06-19T02:43:30.400Z,4.90
2017-06-19T02:44:26.678Z,4.80
2017-06-19T02:45:22.934Z,5.20
2017-06-19T02:46:19.196Z,5.20
2017-06-19T02:47:15.470Z,5.00
2017-06-19T02:48:11.731Z,4.50
2017-06-19T02:49:07.986Z,5.70
2017-06-19T02:50:04.242Z,4.60
2017-06-19T02:51:00.503Z,4.90
2017-06-19T02:51:56.776Z,5.60
2017-06-19T02:52:53.043Z,5.40
2017-06-19T02:53:49.314Z,4.30
2017-06-19T02:54:45.583Z,4.50
2017-06-19T02:55:41.849Z,4.30
2017-06-19T02:56:38.119Z,4.80
2017-06-19T02:57:34.407Z,4.90
2017-06-19T02:58:30.654Z,4.40
2017-06-19T02:59:26.907Z,5.00
2017-06-19T03:00:23.155Z,4.50
2017-06-19T03:01:19.410Z,4.60
2017-06-19T03:02:15.679Z,4.90
2017-06-19T03:03:11.930Z,4.80
2017-06-19T03:04:08.195Z,5.30
2017-06-19T03:05:04.443Z,4.50
2017-06-19T03:06:00.703Z,4.70
2017-06-19T03:06:56.954Z,4.30
2017-06-19T03:07:53.219Z,4.60
2017-06-19T03:08:49.466Z,4.80
2017-06-19T03:09:45.720Z,4.60
2017-06-19T03:10:41.982Z,5.10
2017-06-19T03:11:38.235Z,4.60
2017-06-19T03:12:34.506Z,4.30
2017-06-19T03:13:30.758Z,4.30
2017-06-19T03:14:27.019Z,4.80
2017-06-19T03:15:23.291Z,4.30
2017-06-19T03:16:19.563Z,5.30
2017-06-19T03:17:15.828Z,4.10
2017-06-19T03:18:12.111Z,4.50
2017-06-19T03:19:08.371Z,4.30
2017-06-19T03:20:04.631Z,4.60
2017-06-19T03:21:00.887Z,4.00
2017-06-19T03:21:57.151Z,3.50
2017-06-19T03:22:53.400Z,4.50
2017-06-19T03:23:50.009Z,4.30
2017-06-19T03:24:46.266Z,4.70
2017-06-19T03:25:42.510Z,4.70
2017-06-19T03:26:38.783Z,4.90
2017-06-19T03:27:35.046Z,4.80
2017-06-19T03:28:31.330Z,4.50
2017-06-19T03:29:27.603Z,4.20
2017-06-19T03:30:23.859Z,4.40
2017-06-19T03:31:20.115Z,4.20
2017-06-19T03:32:16.359Z,4.90
2017-06-19T03:33:12.618Z,4.30
2017-06-19T03:34:08.894Z,4.60
2017-06-19T03:35:05.148Z,4.70
2017-06-19T03:36:01.398Z,4.00
2017-06-19T03:36:57.651Z,4.50
2017-06-19T03:37:53.908Z,4.00
2017-06-19T03:38:50.218Z,4.80
2017-06-19T03:39:46.486Z,4.60
2017-06-19T03:40:42.755Z,4.50
2017-06-19T03:41:39.023Z,4.60
2017-06-19T03:42:35.274Z,4.60
2017-06-19T03:43:31.510Z,4.80
2017-06-19T03:44:27.782Z,4.30
2017-06-19T03:45:24.054Z,4.40
2017-06-19T03:46:20.302Z,4.10
2017-06-19T03:47:16.563Z,4.30
2017-06-19T03:48:12.807Z,5.00
2017-06-19T03:49:09.054Z,4.60
2017-06-19T03:50:05.314Z,4.60
2017-06-19T03:51:01.589Z,4.70
2017-06-19T03:51:57.850Z,4.70
2017-06-19T03:52:54.106Z,4.20
2017-06-19T03:53:50.366Z,4.10
2017-06-19T03:54:46.635Z,4.90
2017-06-19T03:55:42.911Z,5.00
2017-06-19T03:56:39.167Z,4.40
2017-06-19T03:57:35.423Z,4.40
2017-06-19T03:58:31.665Z,4.80
2017-06-19T03:59:27.926Z,4.80
2017-06-19T04:00:24.179Z,4.00
2017-06-19T04:01:20.462Z,4.90
2017-06-19T04:02:16.715Z,4.10
2017-06-19T04:03:12.984Z,4.20
2017-06-19T04:04:09.238Z,4.30
2017-06-19T04:05:05.495Z,4.90
2017-06-19T04:06:01.799Z,4.00
2017-06-19T04:06:58.082Z,4.90
2017-06-19T04:07:54.359Z,4.10
2017-06-19T04:08:50.623Z,4.70
2017-06-19T04:09:46.882Z,3.70
2017-06-19T04:10:43.156Z,4.70
2017-06-19T04:11:39.447Z,4.60
2017-06-19T04:12:35.703Z,4.70
2017-06-19T04:13:31.963Z,4.70
2017-06-19T04:14:28.234Z,4.70
2017-06-19T04:15:24.482Z,4.80
2017-06-19T04:16:20.736Z,4.90
2017-06-19T04:17:17.019Z,4.80
2017-06-19T04:18:13.271Z,4.80
2017-06-19T04:19:09.530Z,4.00
2017-06-19T04:20:05.786Z,4.70
2017-06-19T04:21:02.035Z,4.30
2017-06-19T04:21:58.283Z,4.70
2017-06-19T04:22:54.550Z,5.20
2017-06-19T04:23:50.838Z,5.30
2017-06-19T04:24:47.111Z,5.50
2017-06-19T04:25:48.352Z,4.60
2017-06-19T04:26:44.682Z,4.90
2017-06-19T04:27:41.042Z,6.20
2017-06-19T04:28:37.343Z,5.20
2017-06-19T04:29:33.647Z,5.10
2017-06-19T04:30:29.950Z,4.60
2017-06-19T04:31:26.228Z,4.80
2017-06-19T04:32:22.530Z,5.10
2017-06-19T04:33:18.803Z,5.10
2017-06-19T04:34:15.062Z,4.90
2017-06-19T04:35:11.319Z,4.60
2017-06-19T04:36:07.615Z,5.30
2017-06-19T04:37:03.880Z,4.70
2017-06-19T04:38:00.130Z,5.50
2017-06-19T04:38:56.402Z,4.90
2017-06-19T04:39:52.666Z,4.50
2017-06-19T04:40:48.914Z,4.70
2017-06-19T04:41:45.210Z,4.10
2017-06-19T04:42:41.470Z,4.30
2017-06-19T04:43:37.731Z,4.60
2017-06-19T04:44:34.014Z,4.50
2017-06-19T04:45:30.292Z,3.80
2017-06-19T04:46:26.574Z,5.20
2017-06-19T04:47:22.823Z,4.90
2017-06-19T04:48:19.071Z,4.40
2017-06-19T04:49:15.343Z,4.90
2017-06-19T04:50:11.602Z,5.00
2017-06-19T04:51:07.863Z,5.10
2017-06-19T04:52:04.136Z,4.40
2017-06-19T04:53:00.398Z,5.10
2017-06-19T04:53:56.654Z,5.00
2017-06-19T04:54:52.926Z,5.00
2017-06-19T04:55:49.215Z,4.50
2017-06-19T04:56:45.514Z,4.50
2017-06-19T04:57:41.777Z,4.50
2017-06-19T04:58:38.055Z,5.30
2017-06-19T04:59:34.329Z,4.70
2017-06-19T05:00:30.617Z,4.80
2017-06-19T05:01:26.870Z,4.60
2017-06-19T05:02:23.126Z,4.50
2017-06-19T05:03:19.396Z,4.40
2017-06-19T05:04:15.662Z,4.70
2017-06-19T05:05:11.938Z,4.20
2017-06-19T05:06:08.203Z,4.40
2017-06-19T05:07:04.463Z,4.50
2017-06-19T05:08:00.723Z,4.60
2017-06-19T05:08:56.990Z,4.40
2017-06-19T05:09:53.239Z,4.70
2017-06-19T05:10:49.535Z,4.70
2017-06-19T05:11:45.810Z,5.20
2017-06-19T05:12:42.059Z,4.90
2017-06-19T05:13:38.315Z,4.50
2017-06-19T05:14:34.579Z,4.40
2017-06-19T05:15:30.842Z,4.60
2017-06-19T05:16:27.120Z,4.70
2017-06-19T05:17:23.391Z,4.10
2017-06-19T05:18:19.658Z,4.40
2017-06-19T05:19:15.930Z,4.10
2017-06-19T05:20:12.178Z,5.20
2017-06-19T05:21:08.471Z,4.10
2017-06-19T05:22:04.743Z,4.40
2017-06-19T05:23:00.998Z,4.30
2017-06-19T05:23:57.251Z,3.70
2017-06-19T05:24:53.510Z,5.00
2017-06-19T05:25:49.775Z,3.90
2017-06-19T05:26:46.062Z,4.00
2017-06-19T05:27:42.323Z,4.60
2017-06-19T05:28:38.575Z,4.60
2017-06-19T05:29:34.826Z,4.80
2017-06-19T05:30:31.086Z,4.20
2017-06-19T05:31:27.379Z,3.90
2017-06-19T05:32:23.627Z,4.00
2017-06-19T05:33:19.887Z,4.10
2017-06-19T05:34:16.146Z,4.20
2017-06-19T05:35:12.422Z,4.00
2017-06-19T05:36:08.684Z,4.00
2017-06-19T05:37:04.988Z,4.60
2017-06-19T05:38:01.235Z,4.50
2017-06-19T05:38:57.498Z,5.10
2017-06-19T05:39:53.789Z,4.20
2017-06-19T05:40:50.039Z,5.10
2017-06-19T05:41:46.321Z,4.00
2017-06-19T05:42:42.562Z,4.30
2017-06-19T05:43:38.802Z,4.40
2017-06-19T05:44:35.055Z,4.70
2017-06-19T05:45:31.315Z,4.60
2017-06-19T05:46:27.566Z,4.70
2017-06-19T05:47:23.867Z,3.80
2017-06-19T05:48:20.106Z,4.70
2017-06-19T05:49:16.350Z,4.60
2017-06-19T05:50:12.623Z,4.40
2017-06-19T05:51:08.907Z,3.80
2017-06-19T05:52:05.167Z,5.10
2017-06-19T05:53:01.460Z,4.20
2017-06-19T05:53:57.714Z,4.10
2017-06-19T05:54:53.981Z,3.80
2017-06-19T05:55:50.238Z,4.00
2017-06-19T05:56:46.508Z,3.60
2017-06-19T05:57:42.759Z,3.90
2017-06-19T05:58:39.035Z,3.80
2017-06-19T05:59:35.319Z,4.50
2017-06-19T06:00:31.582Z,4.00
2017-06-19T06:01:27.868Z,4.10
2017-06-19T06:02:24.149Z,4.20
2017-06-19T06:03:20.441Z,4.70
2017-06-19T06:04:17.134Z,4.70
2017-06-19T06:05:13.399Z,4.90
2017-06-19T06:06:09.654Z,4.10
2017-06-19T06:07:05.902Z,4.00
2017-06-19T06:08:02.147Z,4.50
2017-06-19T06:08:58.391Z,4.00
2017-06-19T06:09:54.672Z,4.30
2017-06-19T06:10:50.931Z,4.90
2017-06-19T06:11:47.182Z,4.30
2017-06-19T06:12:43.438Z,4.20
2017-06-19T06:13:39.686Z,4.50
2017-06-19T06:14:35.938Z,4.30
2017-06-19T06:15:32.202Z,4.70
2017-06-19T06:16:28.459Z,4.80
2017-06-19T06:17:24.711Z,4.50
2017-06-19T06:18:20.959Z,4.50
2017-06-19T06:19:17.203Z,5.00
2017-06-19T06:20:13.477Z,4.80
2017-06-19T06:21:09.732Z,4.30
2017-06-19T06:22:05.991Z,4.30
2017-06-19T06:23:02.243Z,5.20
2017-06-19T06:23:58.495Z,4.70
2017-06-19T06:24:54.751Z,4.90
2017-06-19T06:25:51.034Z,4.60
2017-06-19T06:26:47.286Z,4.60
2017-06-19T06:27:43.538Z,5.20
2017-06-19T06:28:39.779Z,4.20
2017-06-19T06:29:36.030Z,4.80
2017-06-19T06:30:32.314Z,4.50
2017-06-19T06:31:28.570Z,4.60
2017-06-19T06:32:24.844Z,4.60
2017-06-19T06:33:21.110Z,4.80
2017-06-19T06:34:17.371Z,4.30
2017-06-19T06:35:13.614Z,4.10
2017-06-19T06:36:09.874Z,4.80
2017-06-19T06:37:06.119Z,4.40
2017-06-19T06:38:02.368Z,4.30
2017-06-19T06:38:58.622Z,4.40
2017-06-19T06:39:54.878Z,5.30
2017-06-19T06:40:51.162Z,4.20
2017-06-19T06:41:47.415Z,4.50
2017-06-19T06:42:43.671Z,4.50
2017-06-19T06:43:39.966Z,4.40
2017-06-19T06:44:36.218Z,4.90
2017-06-19T06:45:32.480Z,4.10
2017-06-19T06:46:28.766Z,4.30
2017-06-19T06:47:25.023Z,4.30
2017-06-19T06:48:21.291Z,4.20
2017-06-19T06:49:17.539Z,4.50
2017-06-19T06:50:13.787Z,4.30
2017-06-19T06:51:10.046Z,4.60
2017-06-19T06:52:06.311Z,4.60
2017-06-19T06:53:02.567Z,5.20
2017-06-19T06:53:58.823Z,4.50
2017-06-19T06:54:55.082Z,4.00
2017-06-19T06:55:51.345Z,4.70
2017-06-19T06:56:47.634Z,5.20
2017-06-19T06:57:43.912Z,4.50
2017-06-19T06:58:40.143Z,4.60
2017-06-19T06:59:36.423Z,4.30
2017-06-19T07:00:32.687Z,4.40
2017-06-19T07:01:28.959Z,4.00
2017-06-19T07:02:25.250Z,4.70
2017-06-19T07:03:21.523Z,4.80
2017-06-19T07:04:17.786Z,4.10
2017-06-19T07:05:14.050Z,4.80
2017-06-19T07:06:10.587Z,4.90
2017-06-19T07:07:06.830Z,3.90
2017-06-19T07:08:03.094Z,4.50
2017-06-19T07:08:59.364Z,4.30
2017-06-19T07:09:55.634Z,4.70
2017-06-19T07:10:51.894Z,4.40
2017-06-19T07:11:48.171Z,4.20
2017-06-19T07:12:44.458Z,4.20
2017-06-19T07:13:40.711Z,4.40
2017-06-19T07:14:36.970Z,4.70
2017-06-19T07:15:33.230Z,4.00
2017-06-19T07:16:29.507Z,4.60
2017-06-19T07:17:25.802Z,3.80
2017-06-19T07:18:22.075Z,4.60
2017-06-19T07:19:18.347Z,4.10
2017-06-19T07:20:14.599Z,5.20
2017-06-19T07:21:10.866Z,4.40
2017-06-19T07:22:07.125Z,4.10
2017-06-19T07:23:03.394Z,4.50
2017-06-19T07:23:59.666Z,4.70
2017-06-19T07:24:55.923Z,4.00
2017-06-19T07:25:52.183Z,4.60
2017-06-19T07:26:48.438Z,4.80
2017-06-19T07:27:44.691Z,4.10
2017-06-19T07:28:40.959Z,3.90
2017-06-19T07:29:37.247Z,4.20
2017-06-19T07:30:33.502Z,4.00
2017-06-19T07:31:29.747Z,4.50
2017-06-19T07:32:25.998Z,4.60
2017-06-19T07:33:22.262Z,3.80
2017-06-19T07:34:18.506Z,4.50
2017-06-19T07:35:14.783Z,3.90
2017-06-19T07:36:11.042Z,4.00
2017-06-19T07:37:07.303Z,4.30
2017-06-19T07:38:03.562Z,4.70
2017-06-19T07:38:59.818Z,4.40
2017-06-19T07:39:56.115Z,4.40
2017-06-19T07:40:52.362Z,3.80
2017-06-19T07:41:48.635Z,4.60
2017-06-19T07:42:44.899Z,4.30
2017-06-19T07:43:41.175Z,4.30
2017-06-19T07:44:37.438Z,3.40
2017-06-19T07:45:33.755Z,3.90
2017-06-19T07:46:30.038Z,4.40
2017-06-19T07:47:26.291Z,4.50
2017-06-19T07:48:22.574Z,4.00
2017-06-19T07:49:18.846Z,3.70
2017-06-19T07:50:15.107Z,3.90
2017-06-19T07:51:11.415Z,3.80
2017-06-19T07:52:07.663Z,4.50
2017-06-19T07:53:03.910Z,4.10
2017-06-19T07:54:00.175Z,4.90
2017-06-19T07:54:56.415Z,4.90
2017-06-19T07:55:52.682Z,4.40
2017-06-19T07:56:48.934Z,3.90
2017-06-19T07:57:45.179Z,3.70
2017-06-19T07:58:41.426Z,3.30
2017-06-19T07:59:37.687Z,3.50
2017-06-19T08:00:33.959Z,3.50
2017-06-19T08:01:30.242Z,3.40
2017-06-19T08:02:26.495Z,4.00
2017-06-19T08:03:22.758Z,4.40
2017-06-19T08:04:19.003Z,3.70
2017-06-19T08:05:15.266Z,4.20
2017-06-19T08:06:11.531Z,4.20
2017-06-19T08:07:07.799Z,3.50
2017-06-19T08:08:04.055Z,3.50
2017-06-19T08:09:00.330Z,3.80
2017-06-19T08:09:56.590Z,3.30
2017-06-19T08:10:52.842Z,4.00
2017-06-19T08:11:49.115Z,3.70
2017-06-19T08:12:45.374Z,4.00
2017-06-19T08:13:41.651Z,4.00
2017-06-19T08:14:37.914Z,3.50
2017-06-19T08:15:34.171Z,3.80
2017-06-19T08:16:30.423Z,3.90
2017-06-19T08:17:27.590Z,3.60
2017-06-19T08:18:23.851Z,3.90
2017-06-19T08:19:20.103Z,4.30
2017-06-19T08:20:16.371Z,3.60
2017-06-19T08:21:13.175Z,2.90
2017-06-19T08:22:14.127Z,3.40
2017-06-19T08:23:10.431Z,3.90
2017-06-19T08:24:11.392Z,4.30
2017-06-19T08:25:07.642Z,4.00
2017-06-19T08:26:03.891Z,3.80
2017-06-19T08:27:00.135Z,4.40
2017-06-19T08:27:56.409Z,3.50
2017-06-19T08:28:52.679Z,3.30
2017-06-19T08:29:48.939Z,4.00
2017-06-19T08:30:45.188Z,3.50
2017-06-19T08:31:41.447Z,3.70
2017-06-19T08:32:37.707Z,3.10
2017-06-19T08:33:34.002Z,3.50
2017-06-19T08:34:30.332Z,2.90
2017-06-19T08:35:26.583Z,3.20
2017-06-19T08:36:23.691Z,3.00
2017-06-19T08:37:19.955Z,3.60
2017-06-19T08:38:16.218Z,3.50
2017-06-19T08:39:12.501Z,3.20
2017-06-19T08:40:08.762Z,3.70
2017-06-19T08:41:05.014Z,3.70
2017-06-19T08:42:01.267Z,2.90
2017-06-19T08:42:57.522Z,3.10
2017-06-19T08:43:53.790Z,2.60
2017-06-19T08:44:50.046Z,2.80
2017-06-19T08:45:46.306Z,2.70
2017-06-19T08:46:42.563Z,2.40
2017-06-19T08:47:38.814Z,2.90
2017-06-19T08:48:35.059Z,2.80
2017-06-19T08:49:31.347Z,2.90
2017-06-19T08:50:27.594Z,2.50
2017-06-19T08:51:23.843Z,2.80
2017-06-19T08:52:20.114Z,3.00
2017-06-19T08:53:16.356Z,3.10
2017-06-19T08:54:12.614Z,2.90
2017-06-19T08:55:08.886Z,3.10
2017-06-19T08:56:05.136Z,2.30
2017-06-19T08:57:01.411Z,2.90
2017-06-19T08:57:57.663Z,2.90
2017-06-19T08:58:53.918Z,2.70
2017-06-19T08:59:50.184Z,3.20
2017-06-19T09:00:46.427Z,2.90
2017-06-19T09:01:42.694Z,2.80
2017-06-19T09:02:38.940Z,2.80
2017-06-19T09:03:35.186Z,2.40
2017-06-19T09:04:31.482Z,2.50
2017-06-19T09:05:27.757Z,4.00
2017-06-19T09:06:24.013Z,2.50
2017-06-19T09:07:20.258Z,2.60
2017-06-19T09:08:16.534Z,2.90
2017-06-19T09:09:12.786Z,2.40
2017-06-19T09:10:09.031Z,3.00
2017-06-19T09:11:05.299Z,2.90
2017-06-19T09:12:01.550Z,2.70
2017-06-19T09:12:57.815Z,2.70
2017-06-19T09:13:54.068Z,3.00
2017-06-19T09:14:50.331Z,3.00
2017-06-19T09:15:46.591Z,2.80
2017-06-19T09:16:42.850Z,2.50
2017-06-19T09:17:39.110Z,3.10
2017-06-19T09:18:35.354Z,2.80
2017-06-19T09:19:31.611Z,2.90
2017-06-19T09:20:27.864Z,2.70
2017-06-19T09:21:24.139Z,2.80
2017-06-19T09:22:20.390Z,3.20
2017-06-19T09:23:16.643Z,3.00
2017-06-19T09:24:12.891Z,3.00
2017-06-19T09:25:09.139Z,2.50
2017-06-19T09:26:05.383Z,2.70
2017-06-19T09:27:01.663Z,2.80
2017-06-19T09:27:57.924Z,2.40
2017-06-19T09:28:54.182Z,2.40
2017-06-19T09:29:50.442Z,2.30
2017-06-19T09:30:46.695Z,2.80
2017-06-19T09:31:42.964Z,2.60
2017-06-19T09:32:39.227Z,2.30
2017-06-19T09:33:35.495Z,2.70
2017-06-19T09:34:31.746Z,2.90
2017-06-19T09:35:27.998Z,2.90
2017-06-19T09:36:24.247Z,2.90
2017-06-19T09:37:20.530Z,2.90
2017-06-19T09:38:16.791Z,2.60
2017-06-19T09:39:13.042Z,2.80
2017-06-19T09:40:09.295Z,2.80
2017-06-19T09:41:05.566Z,2.50
2017-06-19T09:42:02.318Z,2.70
2017-06-19T09:42:58.598Z,2.30
2017-06-19T09:43:54.854Z,2.80
2017-06-19T09:44:51.114Z,3.10
2017-06-19T09:45:47.379Z,2.80
2017-06-19T09:46:43.651Z,2.30
2017-06-19T09:47:39.922Z,2.60
2017-06-19T09:48:36.170Z,2.60
2017-06-19T09:49:32.414Z,2.90
2017-06-19T09:50:28.675Z,2.70
2017-06-19T09:51:24.922Z,3.00
2017-06-19T09:52:21.183Z,2.60
2017-06-19T09:53:17.446Z,2.80
2017-06-19T09:54:13.704Z,3.00
2017-06-19T09:55:09.959Z,2.60
2017-06-19T09:56:06.210Z,2.30
2017-06-19T09:57:02.460Z,2.80
2017-06-19T09:57:58.722Z,2.90
2017-06-19T09:58:54.991Z,2.70
2017-06-19T09:59:51.271Z,2.20
2017-06-19T10:00:47.526Z,2.80
2017-06-19T10:01:43.770Z,3.00
2017-06-19T10:02:40.034Z,2.60
2017-06-19T10:03:36.282Z,2.90
2017-06-19T10:04:32.544Z,2.60
2017-06-19T10:05:28.791Z,2.50
2017-06-19T10:06:25.066Z,2.90
2017-06-19T10:07:21.387Z,2.90
2017-06-19T10:08:17.631Z,2.90
2017-06-19T10:09:13.880Z,2.80
2017-06-19T10:10:10.139Z,2.90
2017-06-19T10:11:06.386Z,2.80
2017-06-19T10:12:02.650Z,2.80
2017-06-19T10:12:58.923Z,2.90
2017-06-19T10:13:55.171Z,2.90
2017-06-19T10:14:51.454Z,2.80
2017-06-19T10:15:47.707Z,2.90
2017-06-19T10:16:43.965Z,3.10
2017-06-19T10:17:40.271Z,3.10
2017-06-19T10:18:36.532Z,3.00
2017-06-19T10:19:32.782Z,3.20
2017-06-19T10:20:29.043Z,3.00
2017-06-19T10:21:25.286Z,2.90
2017-06-19T10:22:21.538Z,2.80
2017-06-19T10:23:17.786Z,3.20
2017-06-19T10:24:14.045Z,3.10
2017-06-19T10:25:10.302Z,2.60
2017-06-19T10:26:06.575Z,3.10
2017-06-19T10:27:02.827Z,2.80
2017-06-19T10:27:59.074Z,2.90
2017-06-19T10:28:55.330Z,2.60
2017-06-19T10:29:51.586Z,2.70
2017-06-19T10:30:47.867Z,2.90
2017-06-19T10:31:44.118Z,2.90
2017-06-19T10:32:40.370Z,2.80
2017-06-19T10:33:36.635Z,3.50
2017-06-19T10:34:32.885Z,3.40
2017-06-19T10:35:29.137Z,3.00
2017-06-19T10:36:25.483Z,3.10
2017-06-19T10:37:21.746Z,3.20
2017-06-19T10:38:17.998Z,3.10
2017-06-19T10:39:14.250Z,2.90
2017-06-19T10:40:10.502Z,3.20
2017-06-19T10:41:06.743Z,2.90
2017-06-19T10:42:03.019Z,2.90
2017-06-19T10:42:59.267Z,3.00
2017-06-19T10:43:55.566Z,3.10
2017-06-19T10:44:51.810Z,2.70
2017-06-19T10:45:48.075Z,3.10
2017-06-19T10:46:44.345Z,2.80
2017-06-19T10:47:40.591Z,3.10
2017-06-19T10:48:36.842Z,2.70
2017-06-19T10:49:33.083Z,3.40
2017-06-19T10:50:29.330Z,3.00
2017-06-19T10:51:25.582Z,3.30
2017-06-19T10:52:21.862Z,3.20
2017-06-19T10:53:18.143Z,3.70
2017-06-19T10:54:14.404Z,3.00
2017-06-19T10:55:10.667Z,3.00
2017-06-19T10:56:06.911Z,2.90
2017-06-19T10:57:03.154Z,3.30
2017-06-19T10:57:59.434Z,2.80
2017-06-19T10:58:55.693Z,2.90
2017-06-19T10:59:51.962Z,3.40
2017-06-19T11:00:48.207Z,3.40
2017-06-19T11:01:44.450Z,2.90
2017-06-19T11:02:40.714Z,2.90
2017-06-19T11:03:36.986Z,3.00
2017-06-19T11:04:33.310Z,3.10
2017-06-19T11:05:29.589Z,3.00
2017-06-19T11:06:25.842Z,3.00
2017-06-19T11:07:22.118Z,3.40
2017-06-19T11:08:18.399Z,3.90
2017-06-19T11:09:14.659Z,3.10
2017-06-19T11:10:10.914Z,3.10
2017-06-19T11:11:07.177Z,2.90
2017-06-19T11:12:03.439Z,3.10
2017-06-19T11:12:59.690Z,3.80
2017-06-19T11:13:55.972Z,3.20
2017-06-19T11:14:52.218Z,3.80
2017-06-19T11:15:48.547Z,3.30
2017-06-19T11:16:44.818Z,2.70
2017-06-19T11:17:41.075Z,3.10
2017-06-19T11:18:37.342Z,3.00
2017-06-19T11:19:33.618Z,3.20
2017-06-19T11:20:29.878Z,3.30
2017-06-19T11:21:26.142Z,3.10
2017-06-19T11:22:22.403Z,3.10
2017-06-19T11:23:18.658Z,2.90
2017-06-19T11:24:14.940Z,3.20
2017-06-19T11:25:11.215Z,3.00
2017-06-19T11:26:07.461Z,3.20
2017-06-19T11:27:03.715Z,3.10
2017-06-19T11:27:59.973Z,3.20
2017-06-19T11:28:56.232Z,2.70
2017-06-19T11:29:52.510Z,2.90
2017-06-19T11:30:48.774Z,2.80
2017-06-19T11:31:45.030Z,2.70
2017-06-19T11:32:41.332Z,2.50
2017-06-19T11:33:37.590Z,2.60
2017-06-19T11:34:33.867Z,3.20
2017-06-19T11:35:30.148Z,2.80
2017-06-19T11:36:26.408Z,3.30
2017-06-19T11:37:22.686Z,2.80
2017-06-19T11:38:18.940Z,3.10
2017-06-19T11:39:15.194Z,3.10
2017-06-19T11:40:11.487Z,3.10
2017-06-19T11:41:07.742Z,2.40
2017-06-19T11:42:03.998Z,2.00
2017-06-19T11:43:00.259Z,2.30
2017-06-19T11:43:56.502Z,2.70
2017-06-19T11:44:52.758Z,2.80
2017-06-19T11:45:49.034Z,2.40
2017-06-19T11:46:45.299Z,2.60
2017-06-19T11:47:41.563Z,2.80
2017-06-19T11:48:37.816Z,2.80
2017-06-19T11:49:34.078Z,2.50
2017-06-19T11:50:30.327Z,2.60
2017-06-19T11:51:26.613Z,2.90
2017-06-19T11:52:22.887Z,2.50
2017-06-19T11:53:19.158Z,2.70
2017-06-19T11:54:15.418Z,3.00
2017-06-19T11:55:11.691Z,2.60
2017-06-19T11:56:07.980Z,2.60
2017-06-19T11:57:05.016Z,2.60
2017-06-19T11:58:01.279Z,2.90
2017-06-19T11:58:57.538Z,2.30
2017-06-19T11:59:53.782Z,2.60
2017-06-19T12:00:50.033Z,2.40
2017-06-19T12:01:46.323Z,2.50
2017-06-19T12:02:42.586Z,2.20
2017-06-19T12:03:38.854Z,2.70
2017-06-19T12:04:35.106Z,2.40
2017-06-19T12:05:31.366Z,2.10
2017-06-19T12:06:27.627Z,2.70
2017-06-19T12:07:23.890Z,2.40
2017-06-19T12:08:20.142Z,2.60
2017-06-19T12:09:16.419Z,2.60
2017-06-19T12:10:12.682Z,2.40
2017-06-19T12:11:08.955Z,2.50
2017-06-19T12:12:05.263Z,2.50
2017-06-19T12:13:01.515Z,2.10
2017-06-19T12:13:57.780Z,2.70
2017-06-19T12:14:54.026Z,2.70
2017-06-19T12:15:50.328Z,2.80
2017-06-19T12:16:46.579Z,2.50
2017-06-19T12:17:42.864Z,2.20
2017-06-19T12:18:39.125Z,2.80
2017-06-19T12:19:35.386Z,2.30
2017-06-19T12:20:31.642Z,2.90
2017-06-19T12:21:27.907Z,2.90
2017-06-19T12:22:24.171Z,2.60
2017-06-19T12:23:20.442Z,2.50
2017-06-19T12:24:16.711Z,2.80
2017-06-19T12:25:12.967Z,3.00
2017-06-19T12:26:09.235Z,2.60
2017-06-19T12:27:05.496Z,2.60
2017-06-19T12:28:01.758Z,2.60
2017-06-19T12:28:58.039Z,2.60